Time;durP1;ratioP1;P1;durP2;ratioP2;P2;SDS_P1;SDS_P2;PMS_P1;PMS_P2;Temp;Humidity;BMP_temperature;BMP_pressure;BME280_temperature;BME280_humidity;BME280_pressure;Samples;Min_cycle;Max_cycle;Signal;HPM_P1;HPM_P2
2023/12/16 00:01:33;;;;;;;7.00;3.20;;;;;;;;;;6193490;23;20031;-83
2023/12/16 00:03:59;;;;;;;6.57;3.33;;;;;;;;;;6193278;23;20017;-83
2023/12/16 00:06:25;;;;;;;7.32;2.70;;;;;;;;;;6193403;23;20167;-83
2023/12/16 00:08:51;;;;;;;5.32;2.92;;;;;;;;;;6168068;23;20025;-83
2023/12/16 00:11:17;;;;;;;8.35;3.22;;;;;;;;;;6167716;23;20052;-83
2023/12/16 00:13:43;;;;;;;7.45;2.83;;;;;;;;;;6168097;23;20021;-83
2023/12/16 00:16:10;;;;;;;7.63;3.00;;;;;;;;;;6194401;23;20017;-83
2023/12/16 00:18:37;;;;;;;10.88;2.97;;;;;;;;;;6143367;23;20430;-83
2023/12/16 00:21:03;;;;;;;7.05;3.03;;;;;;;;;;6193494;23;20319;-83
2023/12/16 00:23:30;;;;;;;7.07;3.17;;;;;;;;;;6167212;23;20324;-83
2023/12/16 00:25:56;;;;;;;11.10;3.03;;;;;;;;;;6167033;23;20092;-83
2023/12/16 00:28:33;;;;;;;10.60;3.20;;;;;;;;;;6165981;23;20021;-83
2023/12/16 00:30:59;;;;;;;8.43;3.03;;;;;;;;;;6192392;23;20071;-83
2023/12/16 00:33:25;;;;;;;8.70;3.63;;;;;;;;;;6142126;23;20049;-83
2023/12/16 00:35:51;;;;;;;11.05;3.20;;;;;;;;;;6141671;23;20021;-83
2023/12/16 00:38:17;;;;;;;10.15;3.20;;;;;;;;;;6142332;23;20104;-83
2023/12/16 00:40:43;;;;;;;7.47;3.30;;;;;;;;;;6165893;23;20032;-83
2023/12/16 00:43:09;;;;;;;8.75;3.20;;;;;;;;;;6142420;23;20029;-83
2023/12/16 00:45:36;;;;;;;8.98;2.97;;;;;;;;;;6165997;23;20053;-83
2023/12/16 00:48:02;;;;;;;8.38;2.92;;;;;;;;;;6141877;23;20021;-83
2023/12/16 00:50:28;;;;;;;7.13;3.10;;;;;;;;;;6166029;23;20020;-83
2023/12/16 00:52:54;;;;;;;8.65;3.33;;;;;;;;;;6141295;23;20092;-83
2023/12/16 00:55:20;;;;;;;6.45;2.90;;;;;;;;;;6142037;23;20028;-83
2023/12/16 00:57:46;;;;;;;8.10;3.03;;;;;;;;;;6166359;23;20017;-83
2023/12/16 01:00:13;;;;;;;8.02;2.80;;;;;;;;;;6166636;23;20028;-83
2023/12/16 01:02:39;;;;;;;8.70;3.22;;;;;;;;;;6141487;23;20013;-83
2023/12/16 01:05:05;;;;;;;8.35;3.30;;;;;;;;;;6141127;23;20021;-83
2023/12/16 01:07:31;;;;;;;9.52;3.03;;;;;;;;;;6141066;23;20071;-83
2023/12/16 01:09:57;;;;;;;7.68;3.05;;;;;;;;;;6166315;23;20021;-83
2023/12/16 01:12:23;;;;;;;6.75;3.22;;;;;;;;;;6166185;23;20025;-83
2023/12/16 01:14:51;;;;;;;7.47;3.00;;;;;;;;;;6140745;23;20025;-83
2023/12/16 01:17:18;;;;;;;8.20;3.20;;;;;;;;;;6165372;23;20020;-83
2023/12/16 01:19:44;;;;;;;7.40;3.08;;;;;;;;;;6165610;23;20104;-83
2023/12/16 01:22:10;;;;;;;7.63;3.10;;;;;;;;;;6166317;23;20017;-83
2023/12/16 01:24:37;;;;;;;9.60;3.38;;;;;;;;;;6192987;23;20027;-83
2023/12/16 01:27:04;;;;;;;9.43;3.17;;;;;;;;;;6164973;23;20028;-82
2023/12/16 01:29:30;;;;;;;8.70;2.97;;;;;;;;;;6191588;23;20017;-83
2023/12/16 01:31:56;;;;;;;8.57;3.67;;;;;;;;;;6191960;23;20458;-83
2023/12/16 01:34:22;;;;;;;7.53;3.30;;;;;;;;;;6141437;23;20021;-83
2023/12/16 01:36:48;;;;;;;7.22;3.42;;;;;;;;;;6140371;23;20450;-83
2023/12/16 01:39:14;;;;;;;7.75;3.22;;;;;;;;;;6140547;23;20067;-83
2023/12/16 01:41:40;;;;;;;6.43;2.60;;;;;;;;;;6165648;23;20100;-83
2023/12/16 01:44:06;;;;;;;9.07;3.15;;;;;;;;;;6165551;23;20024;-83
2023/12/16 01:46:35;;;;;;;14.50;2.95;;;;;;;;;;6140298;23;20080;-83
2023/12/16 01:49:01;;;;;;;12.50;3.55;;;;;;;;;;6165102;23;20024;-83
2023/12/16 01:51:28;;;;;;;9.43;2.80;;;;;;;;;;6139969;23;20017;-83
2023/12/16 01:53:54;;;;;;;7.53;3.00;;;;;;;;;;6141266;23;20345;-83
2023/12/16 01:56:21;;;;;;;7.00;2.75;;;;;;;;;;6190226;23;20024;-83
2023/12/16 01:58:49;;;;;;;8.23;2.88;;;;;;;;;;6164426;23;20021;-83
2023/12/16 02:01:15;;;;;;;8.15;2.67;;;;;;;;;;6164428;23;20021;-83
2023/12/16 02:03:42;;;;;;;7.75;2.60;;;;;;;;;;6165296;23;20051;-83
2023/12/16 02:06:08;;;;;;;5.75;2.55;;;;;;;;;;6140067;23;20025;-83
2023/12/16 02:08:34;;;;;;;7.50;2.78;;;;;;;;;;6140199;23;20060;-83
2023/12/16 02:11:00;;;;;;;7.68;2.78;;;;;;;;;;6140157;23;20087;-83
2023/12/16 02:13:26;;;;;;;9.45;3.42;;;;;;;;;;6190573;23;20023;-83
2023/12/16 02:15:53;;;;;;;7.38;2.80;;;;;;;;;;6189319;23;20457;-83
2023/12/16 02:18:19;;;;;;;8.77;3.03;;;;;;;;;;6138732;23;20025;-83
2023/12/16 02:20:46;;;;;;;9.73;3.00;;;;;;;;;;6138510;23;20013;-83
2023/12/16 02:23:15;;;;;;;10.05;2.85;;;;;;;;;;6138215;23;20021;-83
2023/12/16 02:25:42;;;;;;;11.93;3.65;;;;;;;;;;6163256;23;20013;-83
2023/12/16 02:28:09;;;;;;;9.43;3.08;;;;;;;;;;6164045;23;20017;-83
2023/12/16 02:30:35;;;;;;;10.93;3.00;;;;;;;;;;6188860;23;20017;-83
2023/12/16 02:33:01;;;;;;;13.68;3.33;;;;;;;;;;6159273;23;20013;-83
2023/12/16 02:35:27;;;;;;;7.10;3.28;;;;;;;;;;6159396;23;20388;-83
2023/12/16 02:37:53;;;;;;;9.27;3.20;;;;;;;;;;6134921;23;20025;-83
2023/12/16 02:40:19;;;;;;;9.05;2.83;;;;;;;;;;6134876;23;20390;-83
2023/12/16 02:42:46;;;;;;;7.18;2.50;;;;;;;;;;6135296;23;20419;-83
2023/12/16 02:45:12;;;;;;;8.55;2.30;;;;;;;;;;6185641;23;20013;-83
2023/12/16 02:47:41;;;;;;;11.20;2.80;;;;;;;;;;6135516;23;20021;-83
2023/12/16 02:50:08;;;;;;;8.52;2.17;;;;;;;;;;6185401;23;20020;-83
2023/12/16 02:52:34;;;;;;;6.60;2.47;;;;;;;;;;6159971;23;20361;-83
2023/12/16 02:55:00;;;;;;;7.35;2.95;;;;;;;;;;6136959;23;20407;-83
2023/12/16 02:57:28;;;;;;;9.60;2.92;;;;;;;;;;6159764;23;20342;-83
2023/12/16 02:59:55;;;;;;;7.88;2.92;;;;;;;;;;6158689;23;20021;-83
2023/12/16 03:02:21;;;;;;;9.52;3.20;;;;;;;;;;6159156;23;20467;-83
2023/12/16 03:04:47;;;;;;;15.80;3.13;;;;;;;;;;6134546;23;20450;-83
2023/12/16 03:07:13;;;;;;;9.05;3.13;;;;;;;;;;6135114;23;20017;-83
2023/12/16 03:09:39;;;;;;;10.88;3.65;;;;;;;;;;6159565;23;20079;-83
2023/12/16 03:12:06;;;;;;;13.80;2.90;;;;;;;;;;6159415;23;20051;-83
2023/12/16 03:14:34;;;;;;;8.57;2.78;;;;;;;;;;6135592;23;20331;-83
2023/12/16 03:17:00;;;;;;;10.60;3.38;;;;;;;;;;6159827;23;20479;-83
2023/12/16 03:19:27;;;;;;;13.48;2.92;;;;;;;;;;6136390;23;20021;-83
2023/12/16 03:21:53;;;;;;;7.28;2.78;;;;;;;;;;6160305;23;20032;-83
2023/12/16 03:24:19;;;;;;;15.10;3.60;;;;;;;;;;6187129;23;20084;-83
2023/12/16 03:26:46;;;;;;;12.27;3.60;;;;;;;;;;6136005;23;20013;-83
2023/12/16 03:29:12;;;;;;;10.18;3.20;;;;;;;;;;6161342;23;20494;-83
2023/12/16 03:31:38;;;;;;;10.15;2.85;;;;;;;;;;6187516;23;20035;-83
2023/12/16 03:34:04;;;;;;;11.82;3.45;;;;;;;;;;6160655;23;20024;-83
2023/12/16 03:36:30;;;;;;;9.38;3.17;;;;;;;;;;6135887;23;20021;-83
2023/12/16 03:38:57;;;;;;;12.80;3.20;;;;;;;;;;6187958;23;20049;-83
2023/12/16 03:41:23;;;;;;;15.02;3.22;;;;;;;;;;6160887;23;20019;-83
2023/12/16 03:43:52;;;;;;;15.93;3.33;;;;;;;;;;6161668;23;20028;-83
2023/12/16 03:46:18;;;;;;;8.30;3.20;;;;;;;;;;6161983;23;20021;-83
2023/12/16 03:48:44;;;;;;;14.18;3.67;;;;;;;;;;6137216;23;20024;-83
2023/12/16 03:51:10;;;;;;;14.30;3.65;;;;;;;;;;6137697;23;20021;-83
2023/12/16 03:53:36;;;;;;;12.10;3.17;;;;;;;;;;6161738;23;20017;-83
2023/12/16 03:56:03;;;;;;;12.63;4.20;;;;;;;;;;6137935;23;20013;-83
2023/12/16 03:58:30;;;;;;;11.25;3.33;;;;;;;;;;6161510;23;20055;-83
2023/12/16 04:00:56;;;;;;;14.18;3.65;;;;;;;;;;6161779;23;20083;-83
2023/12/16 04:03:22;;;;;;;15.43;4.00;;;;;;;;;;6137746;23;20041;-83
2023/12/16 04:05:51;;;;;;;12.75;3.58;;;;;;;;;;6161740;23;20017;-83
2023/12/16 04:08:17;;;;;;;10.02;3.45;;;;;;;;;;6137056;23;20025;-83
2023/12/16 04:10:43;;;;;;;11.38;3.03;;;;;;;;;;6137305;23;20052;-83
2023/12/16 04:13:09;;;;;;;10.60;3.25;;;;;;;;;;6162646;23;20100;-83
2023/12/16 04:15:35;;;;;;;18.15;4.47;;;;;;;;;;6137132;23;20025;-83
2023/12/16 04:18:01;;;;;;;18.55;4.47;;;;;;;;;;6137594;23;20096;-83
2023/12/16 04:20:28;;;;;;;14.88;3.70;;;;;;;;;;6188291;23;20017;-83
2023/12/16 04:22:55;;;;;;;15.25;3.70;;;;;;;;;;6138170;23;20025;-83
2023/12/16 04:25:21;;;;;;;11.93;3.35;;;;;;;;;;6137930;23;20013;-83
2023/12/16 04:27:47;;;;;;;20.33;3.97;;;;;;;;;;6162953;23;20144;-83
2023/12/16 04:30:13;;;;;;;16.17;3.95;;;;;;;;;;6163222;23;20025;-82
2023/12/16 04:32:39;;;;;;;12.95;3.58;;;;;;;;;;6163023;23;20017;-83
2023/12/16 04:35:05;;;;;;;12.13;3.63;;;;;;;;;;6163681;23;20021;-83
2023/12/16 04:37:31;;;;;;;18.88;4.95;;;;;;;;;;6138241;23;20044;-83
2023/12/16 04:39:57;;;;;;;11.70;3.80;;;;;;;;;;6139660;23;20323;-83
2023/12/16 04:42:23;;;;;;;11.82;4.40;;;;;;;;;;6164689;23;20120;-83
2023/12/16 04:44:49;;;;;;;15.05;3.97;;;;;;;;;;6139455;23;20044;-83
2023/12/16 04:47:16;;;;;;;13.02;4.65;;;;;;;;;;6140677;23;20028;-82
2023/12/16 04:49:42;;;;;;;15.43;4.43;;;;;;;;;;6164201;23;20092;-83
2023/12/16 04:52:08;;;;;;;16.10;3.85;;;;;;;;;;6164560;23;20047;-83
2023/12/16 04:54:34;;;;;;;14.25;4.20;;;;;;;;;;6191298;23;20043;-83
2023/12/16 04:57:00;;;;;;;20.35;5.70;;;;;;;;;;6164632;23;20017;-83
2023/12/16 04:59:26;;;;;;;20.23;4.32;;;;;;;;;;6165774;23;20044;-83
2023/12/16 05:01:52;;;;;;;17.55;4.63;;;;;;;;;;6165389;23;20017;-83
2023/12/16 05:04:19;;;;;;;19.00;4.60;;;;;;;;;;6191881;23;20024;-83
2023/12/16 05:06:45;;;;;;;14.57;4.13;;;;;;;;;;6140188;23;20066;-83
2023/12/16 05:09:12;;;;;;;18.75;4.47;;;;;;;;;;6165291;23;20021;-83
2023/12/16 05:11:38;;;;;;;15.77;4.53;;;;;;;;;;6140366;23;20406;-83
2023/12/16 05:14:04;;;;;;;20.27;4.95;;;;;;;;;;6164870;23;20017;-83
2023/12/16 05:16:31;;;;;;;16.70;5.00;;;;;;;;;;6164803;23;20024;-83
2023/12/16 05:18:59;;;;;;;22.65;5.38;;;;;;;;;;6165778;23;20025;-83
2023/12/16 05:21:28;;;;;;;17.17;5.18;;;;;;;;;;6164970;23;20017;-83
2023/12/16 05:23:54;;;;;;;25.13;5.03;;;;;;;;;;6139228;23;20028;-83
2023/12/16 05:26:21;;;;;;;24.45;5.00;;;;;;;;;;6139620;23;20017;-83
2023/12/16 05:28:47;;;;;;;23.35;5.18;;;;;;;;;;6141002;23;20027;-83
2023/12/16 05:31:13;;;;;;;18.25;4.90;;;;;;;;;;6140481;23;20048;-83
2023/12/16 05:33:39;;;;;;;21.50;5.43;;;;;;;;;;6139880;23;20017;-83
2023/12/16 05:36:05;;;;;;;15.43;4.55;;;;;;;;;;6139956;23;20028;-83
2023/12/16 05:38:31;;;;;;;20.95;5.47;;;;;;;;;;6140108;23;20020;-83
2023/12/16 05:40:57;;;;;;;23.15;5.00;;;;;;;;;;6139689;23;20013;-83
2023/12/16 05:43:23;;;;;;;18.48;5.53;;;;;;;;;;6140090;23;20017;-83
2023/12/16 05:45:50;;;;;;;17.70;5.65;;;;;;;;;;6164626;23;20021;-83
2023/12/16 05:48:16;;;;;;;16.00;5.53;;;;;;;;;;6163950;23;20044;-83
2023/12/16 05:50:42;;;;;;;16.00;5.40;;;;;;;;;;6165189;23;20024;-83
2023/12/16 05:53:08;;;;;;;18.27;4.93;;;;;;;;;;6139841;23;20021;-83
2023/12/16 05:55:34;;;;;;;26.60;5.63;;;;;;;;;;6164395;23;20021;-83
2023/12/16 05:58:00;;;;;;;21.38;4.90;;;;;;;;;;6165114;23;20068;-83
2023/12/16 06:00:27;;;;;;;18.08;5.10;;;;;;;;;;6164583;23;20048;-83
2023/12/16 06:02:53;;;;;;;16.60;5.55;;;;;;;;;;6164978;23;20028;-83
2023/12/16 06:05:19;;;;;;;18.85;4.95;;;;;;;;;;6139150;23;20017;-84
2023/12/16 06:07:46;;;;;;;22.00;5.85;;;;;;;;;;6164141;23;20039;-83
2023/12/16 06:10:12;;;;;;;22.23;5.20;;;;;;;;;;6140556;23;20454;-83
2023/12/16 06:12:38;;;;;;;23.42;6.35;;;;;;;;;;6139911;23;20048;-83
2023/12/16 06:15:04;;;;;;;17.02;5.68;;;;;;;;;;6139987;23;20123;-83
2023/12/16 06:17:30;;;;;;;19.58;5.75;;;;;;;;;;6139471;23;20091;-83
2023/12/16 06:19:56;;;;;;;20.83;6.38;;;;;;;;;;6139817;23;20017;-83
2023/12/16 06:22:23;;;;;;;17.83;6.43;;;;;;;;;;6163814;23;20355;-83
2023/12/16 06:24:52;;;;;;;25.02;5.63;;;;;;;;;;6162900;23;20071;-83
2023/12/16 06:27:20;;;;;;;29.70;6.93;;;;;;;;;;6138179;23;20093;-85
2023/12/16 06:29:46;;;;;;;25.13;6.70;;;;;;;;;;6139090;23;20056;-83
2023/12/16 06:32:13;;;;;;;23.35;6.28;;;;;;;;;;6139264;23;20017;-83
2023/12/16 06:34:39;;;;;;;23.33;6.63;;;;;;;;;;6141171;23;20013;-83
2023/12/16 06:37:05;;;;;;;23.33;6.28;;;;;;;;;;6138946;23;20020;-82
2023/12/16 06:39:31;;;;;;;22.35;7.07;;;;;;;;;;6163048;23;20017;-82
2023/12/16 06:41:57;;;;;;;27.65;7.03;;;;;;;;;;6189327;23;20021;-82
2023/12/16 06:44:23;;;;;;;27.17;7.22;;;;;;;;;;6189369;23;20024;-82
2023/12/16 06:46:52;;;;;;;25.33;7.25;;;;;;;;;;6189687;23;20017;-82
2023/12/16 06:49:18;;;;;;;32.38;7.38;;;;;;;;;;6188908;23;20512;-82
2023/12/16 06:51:44;;;;;;;29.60;7.00;;;;;;;;;;6162370;23;20017;-82
2023/12/16 06:54:10;;;;;;;24.10;7.38;;;;;;;;;;6188733;23;20025;-82
2023/12/16 06:56:36;;;;;;;23.35;6.93;;;;;;;;;;6161988;23;20017;-82
2023/12/16 06:59:02;;;;;;;24.13;7.35;;;;;;;;;;6188896;23;20021;-82
2023/12/16 07:01:28;;;;;;;30.00;8.55;;;;;;;;;;6162136;23;20025;-82
2023/12/16 07:03:54;;;;;;;29.67;7.50;;;;;;;;;;6188582;23;20031;-82
2023/12/16 07:06:20;;;;;;;23.02;7.28;;;;;;;;;;6162248;23;20020;-82
2023/12/16 07:08:47;;;;;;;32.00;7.43;;;;;;;;;;6189451;23;20017;-82
2023/12/16 07:11:14;;;;;;;31.55;7.05;;;;;;;;;;6137508;23;20021;-82
2023/12/16 07:13:40;;;;;;;29.70;7.47;;;;;;;;;;6161183;23;20017;-82
2023/12/16 07:16:06;;;;;;;26.90;8.63;;;;;;;;;;6190429;23;20077;-82
2023/12/16 07:18:33;;;;;;;26.63;7.90;;;;;;;;;;6138706;23;20021;-82
2023/12/16 07:20:59;;;;;;;30.95;8.35;;;;;;;;;;6163636;23;20017;-82
2023/12/16 07:23:28;;;;;;;28.10;7.72;;;;;;;;;;6162880;23;20126;-83
2023/12/16 07:25:54;;;;;;;30.85;8.00;;;;;;;;;;6189494;23;20021;-83
2023/12/16 07:28:21;;;;;;;29.77;8.38;;;;;;;;;;6164431;23;20021;-83
2023/12/16 07:30:47;;;;;;;32.15;8.52;;;;;;;;;;6139494;23;20453;-84
2023/12/16 07:33:13;;;;;;;34.40;9.02;;;;;;;;;;6137991;23;20377;-84
2023/12/16 07:35:40;;;;;;;37.00;8.30;;;;;;;;;;6136853;23;20021;-84
2023/12/16 07:38:10;;;;;;;27.60;9.20;;;;;;;;;;6162170;23;20032;-83
2023/12/16 07:40:39;;;;;;;27.52;8.95;;;;;;;;;;6189927;23;20092;-84
2023/12/16 07:43:05;;;;;;;35.70;9.00;;;;;;;;;;6161823;23;20055;-84
2023/12/16 07:45:31;;;;;;;32.63;9.27;;;;;;;;;;6158726;23;20017;-84
2023/12/16 07:47:58;;;;;;;40.72;10.23;;;;;;;;;;6185163;23;20017;-85
2023/12/16 07:50:24;;;;;;;27.02;8.27;;;;;;;;;;6185283;23;20021;-84
2023/12/16 07:52:50;;;;;;;32.13;8.90;;;;;;;;;;6159239;23;20013;-84
2023/12/16 07:55:16;;;;;;;30.58;8.52;;;;;;;;;;6158886;23;20032;-84
2023/12/16 07:57:45;;;;;;;34.03;9.52;;;;;;;;;;6134259;23;20068;-84
2023/12/16 08:00:11;;;;;;;35.03;9.48;;;;;;;;;;6158157;23;20076;-84
2023/12/16 08:02:37;;;;;;;31.05;8.73;;;;;;;;;;6157897;23;20021;-84
2023/12/16 08:05:05;;;;;;;27.02;8.32;;;;;;;;;;6158669;23;20028;-84
2023/12/16 08:07:32;;;;;;;35.08;9.48;;;;;;;;;;6185871;23;20017;-84
2023/12/16 08:09:58;;;;;;;33.38;9.73;;;;;;;;;;6185120;23;20075;-84
2023/12/16 08:12:30;;;;;;;31.27;8.02;;;;;;;;;;6133492;23;20502;-85
2023/12/16 08:14:56;;;;;;;27.10;8.57;;;;;;;;;;6159850;23;20021;-86
2023/12/16 08:17:23;;;;;;;33.53;8.18;;;;;;;;;;6135420;23;20350;-84
2023/12/16 08:19:49;;;;;;;28.92;7.57;;;;;;;;;;6160355;23;20445;-84
2023/12/16 08:22:18;;;;;;;29.67;8.45;;;;;;;;;;6159924;23;20036;-84
2023/12/16 08:24:44;;;;;;;33.85;8.93;;;;;;;;;;6160312;23;20017;-84
2023/12/16 08:27:10;;;;;;;27.50;7.00;;;;;;;;;;6161337;23;20092;-84
2023/12/16 08:29:36;;;;;;;21.45;7.82;;;;;;;;;;6160306;23;20392;-84
2023/12/16 08:32:06;;;;;;;24.42;7.57;;;;;;;;;;6159640;23;20040;-84
2023/12/16 08:34:33;;;;;;;32.97;9.32;;;;;;;;;;6160218;23;20018;-84
2023/12/16 08:37:00;;;;;;;31.38;8.60;;;;;;;;;;6159785;23;20036;-85
2023/12/16 08:39:28;;;;;;;27.23;8.90;;;;;;;;;;6159882;23;20012;-85
2023/12/16 08:41:54;;;;;;;30.92;7.55;;;;;;;;;;6186395;23;20039;-85
2023/12/16 08:44:20;;;;;;;31.27;8.70;;;;;;;;;;6160332;23;20092;-85
2023/12/16 08:46:49;;;;;;;35.42;8.88;;;;;;;;;;6185539;23;20092;-86
2023/12/16 08:49:18;;;;;;;29.52;7.53;;;;;;;;;;6160070;23;20370;-86
2023/12/16 08:51:45;;;;;;;31.80;8.88;;;;;;;;;;6135437;23;20024;-86
2023/12/16 08:54:11;;;;;;;30.67;8.63;;;;;;;;;;6135885;23;20024;-85
2023/12/16 08:56:37;;;;;;;38.10;8.57;;;;;;;;;;6160055;23;20021;-86
2023/12/16 08:59:03;;;;;;;27.95;8.50;;;;;;;;;;6186459;23;20021;-85
2023/12/16 09:01:29;;;;;;;32.58;8.45;;;;;;;;;;6159446;23;20473;-85
2023/12/16 09:03:55;;;;;;;32.92;7.75;;;;;;;;;;6160387;23;20025;-85
2023/12/16 09:06:21;;;;;;;32.78;8.93;;;;;;;;;;6160020;23;20553;-85
2023/12/16 09:08:50;;;;;;;33.22;8.57;;;;;;;;;;6160161;23;20017;-85
2023/12/16 09:11:16;;;;;;;31.48;8.98;;;;;;;;;;6160196;23;20025;-85
2023/12/16 09:13:43;;;;;;;30.05;8.38;;;;;;;;;;6159820;23;20017;-85
2023/12/16 09:16:09;;;;;;;27.88;8.30;;;;;;;;;;6134850;23;20024;-85
2023/12/16 09:18:38;;;;;;;36.85;8.50;;;;;;;;;;6186195;23;20052;-86
2023/12/16 09:21:07;;;;;;;30.13;8.40;;;;;;;;;;6159044;23;20433;-86
2023/12/16 09:23:33;;;;;;;33.22;8.30;;;;;;;;;;6159219;23;20053;-86
2023/12/16 09:26:02;;;;;;;29.65;8.93;;;;;;;;;;6158755;23;20343;-85
2023/12/16 09:28:28;;;;;;;32.95;9.25;;;;;;;;;;6134934;23;20025;-85
2023/12/16 09:30:54;;;;;;;31.75;9.07;;;;;;;;;;6134683;23;20020;-86
2023/12/16 09:33:21;;;;;;;36.47;9.75;;;;;;;;;;6134243;23;20021;-85
2023/12/16 09:35:47;;;;;;;32.17;8.93;;;;;;;;;;6134790;23;20045;-86
2023/12/16 09:38:14;;;;;;;40.65;9.50;;;;;;;;;;6134492;23;20017;-86
2023/12/16 09:40:43;;;;;;;29.20;8.70;;;;;;;;;;6134149;23;20345;-85
2023/12/16 09:43:16;;;;;;;32.10;8.75;;;;;;;;;;6159828;23;20021;-85
2023/12/16 09:45:50;;;;;;;29.30;8.98;;;;;;;;;;6135441;23;20385;-84
2023/12/16 09:48:17;;;;;;;33.22;9.02;;;;;;;;;;6135967;23;20021;-87
2023/12/16 09:50:43;;;;;;;29.17;9.43;;;;;;;;;;6159698;23;20017;-85
2023/12/16 09:53:09;;;;;;;41.45;10.70;;;;;;;;;;6135480;23;20064;-85
2023/12/16 09:55:39;;;;;;;37.10;10.27;;;;;;;;;;6134763;23;20454;-85
2023/12/16 09:58:06;;;;;;;35.53;11.05;;;;;;;;;;6134814;23;20029;-85
2023/12/16 10:00:32;;;;;;;32.50;9.85;;;;;;;;;;6160978;23;20024;-85
2023/12/16 10:02:58;;;;;;;31.23;9.90;;;;;;;;;;6135175;23;20353;-85
2023/12/16 10:05:27;;;;;;;34.08;9.73;;;;;;;;;;6135297;23;20024;-85
2023/12/16 10:08:01;;;;;;;27.13;9.38;;;;;;;;;;6159564;23;20021;-85
2023/12/16 10:10:28;;;;;;;36.47;10.07;;;;;;;;;;6159047;23;20025;-85
2023/12/16 10:12:54;;;;;;;27.75;10.00;;;;;;;;;;6134660;23;20040;-85
2023/12/16 10:15:33;;;;;;;33.35;10.55;;;;;;;;;;6135684;23;20541;-85
2023/12/16 10:18:00;;;;;;;36.10;11.23;;;;;;;;;;6162339;23;20100;-85
2023/12/16 10:20:26;;;;;;;33.78;11.02;;;;;;;;;;6135867;23;20024;-84
2023/12/16 10:22:53;;;;;;;35.90;11.68;;;;;;;;;;6160223;23;20342;-84
2023/12/16 10:25:19;;;;;;;34.97;10.85;;;;;;;;;;6160516;23;20051;-84
2023/12/16 10:27:46;;;;;;;32.05;10.98;;;;;;;;;;6188229;23;20027;-84
2023/12/16 10:30:12;;;;;;;29.88;11.35;;;;;;;;;;6161712;23;20051;-84
2023/12/16 10:32:40;;;;;;;28.38;10.93;;;;;;;;;;6135833;23;20087;-83
2023/12/16 10:35:07;;;;;;;30.17;10.55;;;;;;;;;;6161446;23;20453;-83
2023/12/16 10:37:33;;;;;;;29.55;9.98;;;;;;;;;;6188228;23;20052;-84
2023/12/16 10:39:59;;;;;;;26.17;10.23;;;;;;;;;;6160956;23;20036;-84
2023/12/16 10:42:25;;;;;;;26.40;8.85;;;;;;;;;;6136275;23;20302;-84
2023/12/16 10:44:52;;;;;;;29.38;9.88;;;;;;;;;;6134924;23;20017;-83
2023/12/16 10:47:19;;;;;;;22.10;9.20;;;;;;;;;;6136283;23;20095;-83
2023/12/16 10:49:45;;;;;;;25.15;8.35;;;;;;;;;;6136516;23;20363;-84
2023/12/16 10:52:13;;;;;;;25.13;9.57;;;;;;;;;;6136102;23;20083;-83
2023/12/16 10:54:44;;;;;;;23.50;9.55;;;;;;;;;;6159125;23;20338;-84
2023/12/16 10:57:24;;;;;;;26.92;9.88;;;;;;;;;;6136300;23;20024;-84
2023/12/16 11:00:11;;;;;;;21.77;9.48;;;;;;;;;;6135874;23;20040;-84
2023/12/16 11:02:38;;;;;;;22.40;9.57;;;;;;;;;;6136386;23;20020;-84
2023/12/16 11:05:12;;;;;;;24.95;10.15;;;;;;;;;;6160055;23;20014;-84
2023/12/16 11:07:39;;;;;;;26.10;9.55;;;;;;;;;;6135956;23;20456;-83
2023/12/16 11:10:06;;;;;;;21.00;9.82;;;;;;;;;;6162633;23;20205;-83
2023/12/16 11:12:36;;;;;;;23.40;9.00;;;;;;;;;;6191811;23;20024;-82
2023/12/16 11:15:04;;;;;;;20.27;9.23;;;;;;;;;;6140501;23;20024;-84
2023/12/16 11:17:33;;;;;;;21.65;8.60;;;;;;;;;;6165219;23;20091;-83
2023/12/16 11:20:08;;;;;;;21.20;9.23;;;;;;;;;;6166159;23;20414;-83
2023/12/16 11:22:44;;;;;;;23.40;10.02;;;;;;;;;;6192935;23;20016;-83
2023/12/16 11:25:16;;;;;;;21.58;8.52;;;;;;;;;;6139510;23;20013;-83
2023/12/16 11:27:42;;;;;;;18.42;8.95;;;;;;;;;;6189546;23;20368;-83
2023/12/16 11:30:12;;;;;;;25.65;9.10;;;;;;;;;;6162200;23;20076;-84
2023/12/16 11:32:38;;;;;;;26.92;9.25;;;;;;;;;;6191676;23;20088;-84
2023/12/16 11:35:08;;;;;;;23.10;8.68;;;;;;;;;;6138548;23;20021;-85
2023/12/16 11:37:37;;;;;;;23.10;8.52;;;;;;;;;;6162261;23;20036;-84
2023/12/16 11:40:04;;;;;;;23.23;9.15;;;;;;;;;;6160972;23;20017;-85
2023/12/16 11:42:46;;;;;;;18.67;9.13;;;;;;;;;;6159867;23;20024;-84
2023/12/16 11:45:31;;;;;;;20.10;8.82;;;;;;;;;;6159511;23;20068;-84
2023/12/16 11:47:58;;;;;;;21.38;8.65;;;;;;;;;;6136515;23;20087;-84
2023/12/16 11:50:24;;;;;;;18.98;9.18;;;;;;;;;;6161496;23;20017;-84
2023/12/16 11:52:50;;;;;;;20.30;8.65;;;;;;;;;;6162907;23;20017;-85
2023/12/16 11:55:16;;;;;;;18.95;8.77;;;;;;;;;;6163454;23;20484;-85
2023/12/16 11:57:42;;;;;;;17.48;8.52;;;;;;;;;;6163500;23;20181;-84
2023/12/16 12:00:09;;;;;;;16.95;8.57;;;;;;;;;;6190433;23;20048;-84
2023/12/16 12:02:36;;;;;;;24.85;9.15;;;;;;;;;;6163190;23;20044;-84
2023/12/16 12:05:02;;;;;;;29.02;9.35;;;;;;;;;;6162795;23;20049;-85
2023/12/16 12:07:29;;;;;;;23.00;9.23;;;;;;;;;;6163175;23;20025;-84
2023/12/16 12:09:55;;;;;;;23.27;8.82;;;;;;;;;;6162828;23;20242;-84
2023/12/16 12:12:21;;;;;;;20.77;8.77;;;;;;;;;;6163671;23;20025;-84
2023/12/16 12:14:48;;;;;;;16.15;7.57;;;;;;;;;;6139397;23;20021;-84
2023/12/16 12:17:14;;;;;;;19.70;7.30;;;;;;;;;;6164878;23;20108;-84
2023/12/16 12:19:43;;;;;;;19.58;8.43;;;;;;;;;;6163605;23;20024;-84
2023/12/16 12:22:09;;;;;;;17.65;7.82;;;;;;;;;;6139152;23;20021;-84
2023/12/16 12:24:35;;;;;;;19.30;7.43;;;;;;;;;;6190619;23;20040;-84
2023/12/16 12:27:01;;;;;;;17.92;7.70;;;;;;;;;;6164680;23;20017;-84
2023/12/16 12:29:27;;;;;;;21.40;7.57;;;;;;;;;;6190671;23;20021;-84
2023/12/16 12:31:53;;;;;;;28.38;8.38;;;;;;;;;;6163888;23;20017;-84
2023/12/16 12:34:23;;;;;;;21.70;8.13;;;;;;;;;;6164598;23;20013;-84
2023/12/16 12:36:55;;;;;;;18.92;7.88;;;;;;;;;;6164739;23;20105;-84
2023/12/16 12:39:21;;;;;;;22.35;7.50;;;;;;;;;;6190440;23;20021;-84
2023/12/16 12:42:01;;;;;;;20.92;8.18;;;;;;;;;;6164186;23;20095;-84
2023/12/16 12:44:28;;;;;;;23.05;8.57;;;;;;;;;;6164681;23;20021;-84
2023/12/16 12:46:54;;;;;;;26.00;9.13;;;;;;;;;;6164623;23;20016;-83
2023/12/16 12:49:20;;;;;;;17.48;7.57;;;;;;;;;;6191008;23;20086;-84
2023/12/16 12:51:50;;;;;;;18.33;7.38;;;;;;;;;;6190478;23;20021;-83
2023/12/16 12:54:16;;;;;;;20.38;8.00;;;;;;;;;;6138130;23;20024;-84
2023/12/16 12:56:42;;;;;;;19.92;7.78;;;;;;;;;;6189924;23;20024;-84
2023/12/16 12:59:08;;;;;;;19.92;8.23;;;;;;;;;;6139221;23;20028;-84
2023/12/16 13:01:34;;;;;;;16.25;7.57;;;;;;;;;;6160153;23;20013;-84
2023/12/16 13:04:00;;;;;;;16.15;7.30;;;;;;;;;;6137060;23;20021;-84
2023/12/16 13:06:26;;;;;;;11.80;6.35;;;;;;;;;;6135605;23;20446;-84
2023/12/16 13:08:52;;;;;;;15.52;6.75;;;;;;;;;;6135655;23;20025;-83
2023/12/16 13:11:18;;;;;;;13.02;6.45;;;;;;;;;;6136223;23;20307;-84
2023/12/16 13:13:44;;;;;;;15.90;7.22;;;;;;;;;;6136150;23;20024;-84
2023/12/16 13:16:13;;;;;;;15.95;6.75;;;;;;;;;;6136031;23;20060;-84
2023/12/16 13:18:42;;;;;;;14.50;6.00;;;;;;;;;;6136774;23;20017;-84
2023/12/16 13:21:08;;;;;;;14.52;5.97;;;;;;;;;;6136244;23;20017;-84
2023/12/16 13:23:34;;;;;;;14.35;6.70;;;;;;;;;;6138430;23;20049;-84
2023/12/16 13:26:00;;;;;;;13.48;6.93;;;;;;;;;;6137140;23;20017;-84
2023/12/16 13:28:26;;;;;;;14.48;6.03;;;;;;;;;;6135858;23;20044;-84
2023/12/16 13:30:53;;;;;;;13.82;7.00;;;;;;;;;;6162283;23;20017;-83
2023/12/16 13:33:19;;;;;;;15.73;7.13;;;;;;;;;;6136234;23;20020;-83
2023/12/16 13:35:47;;;;;;;16.73;6.88;;;;;;;;;;6135733;23;20024;-84
2023/12/16 13:38:14;;;;;;;20.70;7.40;;;;;;;;;;6159660;23;20342;-84
2023/12/16 13:40:40;;;;;;;13.90;6.93;;;;;;;;;;6186431;23;20083;-84
2023/12/16 13:43:06;;;;;;;13.43;6.97;;;;;;;;;;6135616;23;20187;-83
2023/12/16 13:45:32;;;;;;;17.83;7.43;;;;;;;;;;6135288;23;20025;-84
2023/12/16 13:47:59;;;;;;;18.40;7.53;;;;;;;;;;6134690;23;20024;-84
2023/12/16 13:50:25;;;;;;;13.90;6.13;;;;;;;;;;6134927;23;20322;-83
2023/12/16 13:52:51;;;;;;;13.55;6.30;;;;;;;;;;6159983;23;20070;-84
2023/12/16 13:55:18;;;;;;;15.60;7.30;;;;;;;;;;6135170;23;20024;-83
2023/12/16 13:57:47;;;;;;;15.38;6.57;;;;;;;;;;6134655;23;20438;-84
2023/12/16 14:00:14;;;;;;;18.02;8.02;;;;;;;;;;6135764;23;20381;-84
2023/12/16 14:02:40;;;;;;;20.05;7.90;;;;;;;;;;6160109;23;20020;-83
2023/12/16 14:05:06;;;;;;;13.82;6.18;;;;;;;;;;6135812;23;20071;-84
2023/12/16 14:07:32;;;;;;;17.50;7.07;;;;;;;;;;6161593;23;20024;-83
2023/12/16 14:09:58;;;;;;;12.57;6.65;;;;;;;;;;6136281;23;20103;-83
2023/12/16 14:12:24;;;;;;;14.77;6.55;;;;;;;;;;6134659;23;20350;-84
2023/12/16 14:14:51;;;;;;;12.88;6.32;;;;;;;;;;6134833;23;20472;-83
2023/12/16 14:17:17;;;;;;;13.15;6.07;;;;;;;;;;6160468;23;20063;-84
2023/12/16 14:19:43;;;;;;;15.45;6.93;;;;;;;;;;6135835;23;20028;-83
2023/12/16 14:22:09;;;;;;;15.82;6.80;;;;;;;;;;6136246;23;20013;-83
2023/12/16 14:24:37;;;;;;;14.90;6.22;;;;;;;;;;6160559;23;20029;-83
2023/12/16 14:27:03;;;;;;;16.85;6.82;;;;;;;;;;6135233;23;20381;-82
2023/12/16 14:29:30;;;;;;;18.05;6.38;;;;;;;;;;6136468;23;20017;-83